Perugia / San Egidio Airport LIRZ

Flugplatz Daten

Name: Perugia / San Egidio Airport

Ident: LIRZ

Lat: 43,09590149

Long: 12,51319981

Platzhöhe: 697 ft

IataCode: PEG

City: Perugia

Metar

2021/12/03 23:20
LIRZ 032320Z AUTO 36009KT 9999 NCD 03/03 Q1013

Taf

2021/12/03 18:21
TAF LIRZ 031700Z 0318/0418 02015KT 9999 SCT030
BECMG 0322/0324 VRB05KT
BECMG 0410/0412 16010KT
Gewünschte Webcam nicht vorhanden? Dann fügen Sie eine hinzu. Sie wird dann so schnell wie möglich freigeschaltet
Url: Title: